createdAt,value
2023-01-23T00:02:09.669Z,16.88
2023-01-23T00:04:36.778Z,16.45
2023-01-23T00:07:03.650Z,15.85
2023-01-23T00:09:30.570Z,16.27
2023-01-23T00:11:57.862Z,16.77
2023-01-23T00:14:24.925Z,18.27
2023-01-23T00:16:51.871Z,17.20
2023-01-23T00:19:18.704Z,14.85
2023-01-23T00:21:45.547Z,16.05
2023-01-23T00:24:12.731Z,16.00
2023-01-23T00:26:40.203Z,16.23
2023-01-23T00:29:07.340Z,17.35
2023-01-23T00:31:37.364Z,17.70
2023-01-23T00:34:07.476Z,17.42
2023-01-23T00:36:37.083Z,18.70
2023-01-23T00:39:06.850Z,17.17
2023-01-23T00:41:34.234Z,15.88
2023-01-23T00:44:01.081Z,15.80
2023-01-23T00:46:27.983Z,16.73
2023-01-23T00:48:56.818Z,16.52
2023-01-23T00:51:23.918Z,14.15
2023-01-23T00:53:50.721Z,16.60
2023-01-23T00:56:17.727Z,14.43
2023-01-23T00:58:45.383Z,14.60
2023-01-23T01:01:14.057Z,15.88
2023-01-23T01:03:41.504Z,14.60
2023-01-23T01:06:09.148Z,16.95
2023-01-23T01:08:36.199Z,14.88
2023-01-23T01:11:03.235Z,15.15
2023-01-23T01:13:31.468Z,14.07
2023-01-23T01:16:01.833Z,13.77
2023-01-23T01:18:29.683Z,18.27
2023-01-23T01:20:58.200Z,15.82
2023-01-23T01:23:25.828Z,17.42
2023-01-23T01:25:52.951Z,16.10
2023-01-23T01:28:21.149Z,14.68
2023-01-23T01:30:48.043Z,14.85
2023-01-23T01:33:14.904Z,15.55
2023-01-23T01:35:42.285Z,14.60
2023-01-23T01:38:09.431Z,15.75
2023-01-23T01:40:37.263Z,15.52
2023-01-23T01:43:07.814Z,15.02
2023-01-23T01:46:08.913Z,17.00
2023-01-23T01:48:48.199Z,17.50
2023-01-23T01:51:27.015Z,20.73
2023-01-23T01:54:03.459Z,16.77
2023-01-23T01:56:32.720Z,16.33
2023-01-23T01:59:00.831Z,18.35
2023-01-23T02:01:28.195Z,16.40
2023-01-23T02:03:55.643Z,16.65
2023-01-23T02:06:22.721Z,14.85
2023-01-23T02:09:03.920Z,16.10
2023-01-23T02:11:31.309Z,16.70
2023-01-23T02:13:58.180Z,16.73
2023-01-23T02:16:31.329Z,17.08
2023-01-23T02:19:02.053Z,15.45
2023-01-23T02:21:29.634Z,14.45
2023-01-23T02:24:31.233Z,16.98
2023-01-23T02:26:58.622Z,16.40
2023-01-23T02:29:26.485Z,16.27
2023-01-23T02:31:56.329Z,17.00
2023-01-23T02:34:26.052Z,17.88
2023-01-23T02:36:58.449Z,17.17
2023-01-23T02:39:25.668Z,16.88
2023-01-23T02:41:54.922Z,16.38
2023-01-23T02:44:28.561Z,16.13
2023-01-23T02:47:05.180Z,20.02
2023-01-23T02:49:32.011Z,21.10
2023-01-23T02:51:58.863Z,21.20
2023-01-23T02:54:26.210Z,18.15
2023-01-23T02:56:53.527Z,18.45
2023-01-23T02:59:41.124Z,18.38
2023-01-23T03:02:09.096Z,19.45
2023-01-23T03:04:35.940Z,19.35
2023-01-23T03:07:02.937Z,18.48
2023-01-23T03:09:29.894Z,19.38
2023-01-23T03:11:57.579Z,18.60
2023-01-23T03:14:25.604Z,18.05
2023-01-23T03:16:54.187Z,18.02
2023-01-23T03:19:25.418Z,16.80
2023-01-23T03:21:53.141Z,18.58
2023-01-23T03:24:20.853Z,18.02
2023-01-23T03:26:49.344Z,20.90
2023-01-23T03:29:42.282Z,22.48
2023-01-23T03:32:12.343Z,20.50
2023-01-23T03:34:41.522Z,19.40
2023-01-23T03:37:10.001Z,20.80
2023-01-23T03:39:56.504Z,20.27
2023-01-23T03:42:23.603Z,21.05
2023-01-23T03:44:52.932Z,21.52
2023-01-23T03:47:23.617Z,22.02
2023-01-23T03:49:50.457Z,21.38
2023-01-23T03:52:18.515Z,19.65
2023-01-23T03:54:45.821Z,20.67
2023-01-23T03:57:12.645Z,21.02
2023-01-23T03:59:48.771Z,18.67
2023-01-23T04:02:18.708Z,20.98
2023-01-23T04:04:45.609Z,20.80
2023-01-23T04:07:12.438Z,21.83
2023-01-23T04:09:41.375Z,20.15
2023-01-23T04:12:08.564Z,21.40
2023-01-23T04:14:39.409Z,22.25
2023-01-23T04:17:08.022Z,21.85
2023-01-23T04:19:35.572Z,20.55
2023-01-23T04:22:02.805Z,19.00
2023-01-23T04:24:34.808Z,21.20
2023-01-23T04:27:01.711Z,22.90
2023-01-23T04:29:29.140Z,21.60
2023-01-23T04:31:56.594Z,20.25
2023-01-23T04:34:23.471Z,24.00
2023-01-23T04:36:52.512Z,20.60
2023-01-23T04:39:19.583Z,22.35
2023-01-23T04:41:48.834Z,22.85
2023-01-23T04:44:38.758Z,24.25
2023-01-23T04:47:23.925Z,23.35
2023-01-23T04:49:51.553Z,21.85
2023-01-23T04:52:18.901Z,22.20
2023-01-23T04:54:53.244Z,22.02
2023-01-23T04:57:20.677Z,24.33
2023-01-23T04:59:50.660Z,23.83
2023-01-23T05:02:17.956Z,23.05
2023-01-23T05:04:44.994Z,22.05
2023-01-23T05:07:12.664Z,22.35
2023-01-23T05:09:44.909Z,23.90
2023-01-23T05:12:14.933Z,25.00
2023-01-23T05:14:42.133Z,24.27
2023-01-23T05:17:09.135Z,22.50
2023-01-23T05:19:41.009Z,25.80
2023-01-23T05:22:07.986Z,22.63
2023-01-23T05:24:34.983Z,25.63
2023-01-23T05:27:03.334Z,22.48
2023-01-23T05:29:32.130Z,25.13
2023-01-23T05:32:06.753Z,26.50
2023-01-23T05:34:42.739Z,22.00
2023-01-23T05:37:20.605Z,23.27
2023-01-23T05:39:51.819Z,22.50
2023-01-23T05:42:20.002Z,21.60
2023-01-23T05:44:59.412Z,23.02
2023-01-23T05:47:36.840Z,22.67
2023-01-23T05:50:08.100Z,20.88
2023-01-23T05:52:36.977Z,26.83
2023-01-23T05:55:04.408Z,24.55
2023-01-23T05:57:34.192Z,27.05
2023-01-23T06:00:20.295Z,23.58
2023-01-23T06:03:06.608Z,23.35
2023-01-23T06:05:46.539Z,23.15
2023-01-23T06:08:18.265Z,21.65
2023-01-23T06:10:45.260Z,24.98
2023-01-23T06:13:12.550Z,26.25
2023-01-23T06:15:39.802Z,21.98
2023-01-23T06:18:10.883Z,24.50
2023-01-23T06:20:37.732Z,24.92
2023-01-23T06:23:04.635Z,23.77
2023-01-23T06:25:31.576Z,23.60
2023-01-23T06:28:01.593Z,24.20
2023-01-23T06:30:31.570Z,22.35
2023-01-23T06:32:58.526Z,26.67
2023-01-23T06:35:33.276Z,25.30
2023-01-23T06:38:00.223Z,23.33
2023-01-23T06:40:27.113Z,21.48
2023-01-23T06:43:14.301Z,25.33
2023-01-23T06:45:45.300Z,24.33
2023-01-23T06:48:12.894Z,23.25
2023-01-23T06:50:43.045Z,21.90
2023-01-23T06:53:14.762Z,22.85
2023-01-23T06:55:41.808Z,23.23
2023-01-23T06:58:08.732Z,24.08
2023-01-23T07:00:35.893Z,22.05
2023-01-23T07:03:05.161Z,24.52
2023-01-23T07:05:35.961Z,23.23
2023-01-23T07:08:04.798Z,23.73
2023-01-23T07:10:32.517Z,24.55
2023-01-23T07:13:01.760Z,21.65
2023-01-23T07:15:29.127Z,21.90
2023-01-23T07:17:56.087Z,24.00
2023-01-23T07:20:27.366Z,24.20
2023-01-23T07:22:57.841Z,22.73
2023-01-23T07:25:25.754Z,23.70
2023-01-23T07:27:52.628Z,23.60
2023-01-23T07:30:19.669Z,24.58
2023-01-23T07:32:46.703Z,22.67
2023-01-23T07:35:13.901Z,25.15
2023-01-23T07:37:40.761Z,23.00
2023-01-23T07:40:08.358Z,23.90
2023-01-23T07:42:35.238Z,23.33
2023-01-23T07:45:02.090Z,25.58
2023-01-23T07:47:28.952Z,22.92
2023-01-23T07:49:55.723Z,24.10
2023-01-23T07:52:22.637Z,25.92
2023-01-23T07:54:49.496Z,24.05
2023-01-23T07:57:16.428Z,25.20
2023-01-23T07:59:47.174Z,23.23
2023-01-23T08:02:13.938Z,24.35
2023-01-23T08:04:40.837Z,24.15
2023-01-23T08:07:07.775Z,27.23
2023-01-23T08:09:34.591Z,28.13
2023-01-23T08:12:01.504Z,26.08
2023-01-23T08:14:28.412Z,23.10
2023-01-23T08:16:56.513Z,31.45
2023-01-23T08:19:25.412Z,23.35
2023-01-23T08:21:52.285Z,22.23
2023-01-23T08:24:19.061Z,22.67
2023-01-23T08:26:45.936Z,25.10
2023-01-23T08:29:12.827Z,21.50
2023-01-23T08:31:40.200Z,26.73
2023-01-23T08:34:07.183Z,22.20
2023-01-23T08:36:34.087Z,26.95
2023-01-23T08:39:01.039Z,26.10
2023-01-23T08:41:28.000Z,25.17
2023-01-23T08:43:54.936Z,24.95
2023-01-23T08:46:21.770Z,24.42
2023-01-23T08:48:48.605Z,24.65
2023-01-23T08:51:16.130Z,25.02
2023-01-23T08:53:43.039Z,22.20
2023-01-23T08:56:18.951Z,24.98
2023-01-23T08:58:46.433Z,22.25
2023-01-23T09:01:15.592Z,20.95
2023-01-23T09:03:42.475Z,22.88
2023-01-23T09:06:11.242Z,22.90
2023-01-23T09:08:38.075Z,22.80
2023-01-23T09:11:07.443Z,22.33
2023-01-23T09:13:34.773Z,20.65
2023-01-23T09:16:02.053Z,21.95
2023-01-23T09:18:29.008Z,22.17
2023-01-23T09:20:56.192Z,23.52
2023-01-23T09:23:23.948Z,21.92
2023-01-23T09:25:51.003Z,22.92
2023-01-23T09:28:17.965Z,23.77
2023-01-23T09:30:44.854Z,21.13
2023-01-23T09:33:11.668Z,20.95
2023-01-23T09:35:38.506Z,20.98
2023-01-23T09:38:07.612Z,20.80
2023-01-23T09:40:45.874Z,21.80
2023-01-23T09:43:20.153Z,18.95
2023-01-23T09:46:04.159Z,20.58
2023-01-23T09:48:40.095Z,19.88
2023-01-23T09:51:13.617Z,19.58
2023-01-23T09:53:41.303Z,18.38
2023-01-23T09:56:30.954Z,17.92
2023-01-23T09:59:12.191Z,20.27
2023-01-23T10:01:39.370Z,18.60
2023-01-23T10:04:10.400Z,19.15
2023-01-23T10:06:58.678Z,17.40
2023-01-23T10:09:46.913Z,18.30
2023-01-23T10:12:20.177Z,17.10
2023-01-23T10:15:20.388Z,17.42
2023-01-23T10:18:06.251Z,16.38
2023-01-23T10:20:50.316Z,18.15
2023-01-23T10:23:41.377Z,14.95
2023-01-23T10:26:15.311Z,17.80
2023-01-23T10:28:44.252Z,15.63
2023-01-23T10:31:25.029Z,17.35
2023-01-23T10:34:04.899Z,20.88
2023-01-23T10:36:55.953Z,14.68
2023-01-23T10:39:31.425Z,14.27
2023-01-23T10:42:02.396Z,15.02
2023-01-23T10:44:30.169Z,15.02
2023-01-23T10:47:02.153Z,14.65
2023-01-23T10:49:31.316Z,17.60
2023-01-23T10:51:58.817Z,14.07
2023-01-23T10:54:32.980Z,14.45
2023-01-23T10:57:00.413Z,16.23
2023-01-23T11:00:04.533Z,14.45
2023-01-23T11:02:40.861Z,15.15
2023-01-23T11:05:37.615Z,14.40
2023-01-23T11:08:23.845Z,16.90
2023-01-23T11:10:50.713Z,14.98
2023-01-23T11:13:29.183Z,17.38
2023-01-23T11:15:56.297Z,18.25
2023-01-23T11:18:33.499Z,16.15
2023-01-23T11:21:01.597Z,17.70
2023-01-23T11:23:29.918Z,17.15
2023-01-23T11:25:57.330Z,17.98
2023-01-23T11:28:30.864Z,17.88
2023-01-23T11:31:21.145Z,19.85
2023-01-23T11:34:03.481Z,18.92
2023-01-23T11:36:54.506Z,20.35
2023-01-23T11:39:37.347Z,15.50
2023-01-23T11:42:04.391Z,19.52
2023-01-23T11:44:44.982Z,18.08
2023-01-23T11:47:18.541Z,21.80
2023-01-23T11:52:30.476Z,19.77
2023-01-23T11:55:03.501Z,19.40
2023-01-23T11:57:44.191Z,21.15
2023-01-23T12:00:34.788Z,18.63
2023-01-23T12:03:30.740Z,19.58
2023-01-23T12:09:01.611Z,18.10
2023-01-23T12:11:52.862Z,21.40
2023-01-23T12:14:43.395Z,21.38
2023-01-23T12:17:47.141Z,19.23
2023-01-23T12:20:36.120Z,21.77
2023-01-23T12:23:22.378Z,21.42
2023-01-23T12:26:11.940Z,19.67
2023-01-23T12:28:52.672Z,22.58
2023-01-23T12:32:06.735Z,19.77
2023-01-23T12:34:54.939Z,18.30
2023-01-23T12:37:33.281Z,23.38
2023-01-23T12:40:09.975Z,23.08
2023-01-23T12:42:50.550Z,46.00
2023-01-23T12:45:21.165Z,21.75
2023-01-23T12:47:53.737Z,22.27
2023-01-23T12:50:51.352Z,20.60
2023-01-23T12:53:22.114Z,21.00
2023-01-23T12:55:57.679Z,19.02
2023-01-23T12:58:28.030Z,21.30
2023-01-23T13:01:03.833Z,23.92
2023-01-23T13:03:58.532Z,21.58
2023-01-23T13:06:51.502Z,21.08
2023-01-23T13:09:26.342Z,27.42
2023-01-23T13:12:19.582Z,22.00
2023-01-23T13:17:48.827Z,20.23
2023-01-23T13:20:40.898Z,18.97
2023-01-23T13:23:37.924Z,19.38
2023-01-23T13:26:31.322Z,23.95
2023-01-23T13:31:47.177Z,20.35
2023-01-23T13:34:16.918Z,20.67
2023-01-23T13:36:44.799Z,21.45
2023-01-23T13:39:17.870Z,19.17
2023-01-23T13:41:53.074Z,19.45
2023-01-23T13:44:35.845Z,20.33
2023-01-23T14:22:33.901Z,20.67
2023-01-23T14:25:00.742Z,22.20
2023-01-23T14:27:51.427Z,21.20
2023-01-23T14:30:24.868Z,20.73
2023-01-23T14:32:52.189Z,23.45
2023-01-23T14:35:32.704Z,19.05
2023-01-23T14:38:02.451Z,23.27
2023-01-23T14:40:35.341Z,19.65
2023-01-23T14:43:20.038Z,17.80
2023-01-23T14:45:49.634Z,17.40
2023-01-23T14:48:18.123Z,21.70
2023-01-23T14:50:45.157Z,21.73
2023-01-23T14:53:16.935Z,18.65
2023-01-23T14:55:49.711Z,20.13
2023-01-23T14:58:23.704Z,18.77
2023-01-23T15:00:52.646Z,18.25
2023-01-23T15:03:43.642Z,17.15
2023-01-23T15:06:21.783Z,21.13
2023-01-23T15:08:52.005Z,24.20
2023-01-23T15:11:28.363Z,22.13
2023-01-23T15:14:01.514Z,20.13
2023-01-23T15:16:35.952Z,20.08
2023-01-23T15:19:07.799Z,19.05
2023-01-23T15:21:40.723Z,20.73
2023-01-23T15:27:01.046Z,17.83
2023-01-23T15:29:27.851Z,18.27
2023-01-23T15:31:55.874Z,17.48
2023-01-23T15:34:33.826Z,23.08
2023-01-23T15:37:20.181Z,18.45
2023-01-23T15:39:51.576Z,20.45
2023-01-23T15:42:18.359Z,20.08
2023-01-23T15:44:45.286Z,19.00
2023-01-23T15:47:12.200Z,18.95
2023-01-23T15:49:40.302Z,19.00
2023-01-23T15:52:23.893Z,20.73
2023-01-23T15:54:56.929Z,20.52
2023-01-23T15:57:23.859Z,21.23
2023-01-23T15:59:58.086Z,18.30
2023-01-23T16:02:34.530Z,22.65
2023-01-23T16:05:02.742Z,21.88
2023-01-23T16:07:35.080Z,21.55
2023-01-23T16:10:28.573Z,18.50
2023-01-23T16:12:57.410Z,19.85
2023-01-23T16:15:35.063Z,20.58
2023-01-23T16:18:04.573Z,20.65
2023-01-23T16:20:34.758Z,21.02
2023-01-23T16:23:14.667Z,19.45
2023-01-23T16:25:45.346Z,22.15
2023-01-23T16:28:19.281Z,22.90
2023-01-23T16:30:47.436Z,21.23
2023-01-23T16:33:14.974Z,22.80
2023-01-23T16:35:42.237Z,29.58
2023-01-23T16:38:22.599Z,24.80
2023-01-23T16:40:53.919Z,22.75
2023-01-23T16:43:22.164Z,22.65
2023-01-23T16:45:53.687Z,24.30
2023-01-23T16:48:27.120Z,21.10
2023-01-23T16:50:59.901Z,23.58
2023-01-23T16:53:28.069Z,22.38
2023-01-23T16:55:57.784Z,22.10
2023-01-23T16:58:39.656Z,24.23
2023-01-23T17:01:17.750Z,21.92
2023-01-23T17:03:45.037Z,23.55
2023-01-23T17:06:14.333Z,21.08
2023-01-23T17:08:41.474Z,22.88
2023-01-23T17:11:10.569Z,23.23
2023-01-23T17:13:37.468Z,22.55
2023-01-23T17:16:10.694Z,23.92
2023-01-23T17:18:45.666Z,24.17
2023-01-23T17:21:18.930Z,29.70
2023-01-23T17:23:48.106Z,25.55
2023-01-23T17:26:19.511Z,23.65
2023-01-23T17:28:49.073Z,25.25
2023-01-23T17:31:22.991Z,27.55
2023-01-23T17:33:53.158Z,25.67
2023-01-23T17:36:20.238Z,23.55
2023-01-23T17:38:47.443Z,23.08
2023-01-23T17:41:17.551Z,24.23
2023-01-23T17:43:44.849Z,24.10
2023-01-23T17:46:26.775Z,27.83
2023-01-23T17:48:57.181Z,24.70
2023-01-23T17:51:25.562Z,22.58
2023-01-23T17:53:53.148Z,25.95
2023-01-23T17:56:22.383Z,24.50
2023-01-23T17:58:49.251Z,30.65
2023-01-23T18:01:25.784Z,27.85
2023-01-23T18:03:53.712Z,26.63
2023-01-23T18:06:20.608Z,25.30
2023-01-23T18:08:47.677Z,25.38
2023-01-23T18:11:23.007Z,25.52
2023-01-23T18:14:15.561Z,24.45
2023-01-23T18:16:45.524Z,26.30
2023-01-23T18:19:24.423Z,22.95
2023-01-23T18:21:56.386Z,27.55
2023-01-23T18:24:29.012Z,26.52
2023-01-23T18:26:58.732Z,27.48
2023-01-23T18:29:40.754Z,25.35
2023-01-23T18:32:32.152Z,24.60
2023-01-23T18:35:01.573Z,24.23
2023-01-23T18:37:37.581Z,24.85
2023-01-23T18:40:11.731Z,25.75
2023-01-23T18:42:45.470Z,23.17
2023-01-23T18:45:23.517Z,27.33
2023-01-23T18:47:54.609Z,25.98
2023-01-23T18:50:26.951Z,23.63
2023-01-23T18:53:22.538Z,23.63
2023-01-23T18:56:03.341Z,24.02
2023-01-23T18:58:55.737Z,24.35
2023-01-23T19:01:37.891Z,25.55
2023-01-23T19:04:13.171Z,24.58
2023-01-23T19:06:41.214Z,25.60
2023-01-23T19:09:21.314Z,23.80
2023-01-23T19:11:57.260Z,23.35
2023-01-23T19:14:42.611Z,23.55
2023-01-23T19:17:34.172Z,28.42
2023-01-23T19:20:14.014Z,26.02
2023-01-23T19:23:15.594Z,24.42
2023-01-23T19:25:45.438Z,26.90
2023-01-23T19:28:12.669Z,25.92
2023-01-23T19:30:43.081Z,27.65
2023-01-23T19:33:17.560Z,27.65
2023-01-23T19:35:45.957Z,26.75
2023-01-23T19:38:15.058Z,25.70
2023-01-23T19:40:42.803Z,26.08
2023-01-23T19:43:17.058Z,22.63
2023-01-23T19:45:45.036Z,22.00
2023-01-23T19:48:12.618Z,25.52
2023-01-23T19:50:40.322Z,24.40
2023-01-23T19:53:07.662Z,27.48
2023-01-23T19:55:38.221Z,23.13
2023-01-23T19:58:14.381Z,21.50
2023-01-23T20:00:41.407Z,21.38
2023-01-23T20:03:11.323Z,26.05
2023-01-23T20:05:38.127Z,23.85
2023-01-23T20:08:05.077Z,22.85
2023-01-23T20:10:31.877Z,23.05
2023-01-23T20:12:59.305Z,21.38
2023-01-23T20:15:27.616Z,23.88
2023-01-23T20:17:56.852Z,23.63
2023-01-23T20:20:24.137Z,22.27
2023-01-23T20:22:51.257Z,21.58
2023-01-23T20:25:18.276Z,23.23
2023-01-23T20:27:45.243Z,25.73
2023-01-23T20:30:17.780Z,24.85
2023-01-23T20:32:44.716Z,24.73
2023-01-23T20:35:11.845Z,22.67
2023-01-23T20:37:38.971Z,24.20
2023-01-23T20:40:08.805Z,23.60
2023-01-23T20:42:35.670Z,23.52
2023-01-23T20:45:02.580Z,28.23
2023-01-23T20:47:29.516Z,24.27
2023-01-23T20:49:56.438Z,22.90
2023-01-23T20:52:43.211Z,24.98
2023-01-23T20:55:10.646Z,27.13
2023-01-23T20:57:55.984Z,23.10
2023-01-23T21:00:22.919Z,21.80
2023-01-23T21:02:49.895Z,25.80
2023-01-23T21:05:16.946Z,24.13
2023-01-23T21:07:43.750Z,24.55
2023-01-23T21:10:10.732Z,22.33
2023-01-23T21:12:37.643Z,24.15
2023-01-23T21:15:04.965Z,22.98
2023-01-23T21:17:31.815Z,25.67
2023-01-23T21:19:59.936Z,23.92
2023-01-23T21:22:26.745Z,24.40
2023-01-23T21:24:53.679Z,22.63
2023-01-23T21:27:26.117Z,24.40
2023-01-23T21:29:53.105Z,24.55
2023-01-23T21:32:21.183Z,24.05
2023-01-23T21:34:48.202Z,24.92
2023-01-23T21:37:15.163Z,24.23
2023-01-23T21:39:42.076Z,22.13
2023-01-23T21:42:11.819Z,25.08
2023-01-23T21:44:38.700Z,25.73
2023-01-23T21:47:05.603Z,23.92
2023-01-23T21:49:32.434Z,27.75
2023-01-23T21:51:59.358Z,25.08
2023-01-23T21:54:26.254Z,26.67
2023-01-23T21:56:53.161Z,28.27
2023-01-23T21:59:20.031Z,29.77
2023-01-23T22:01:47.072Z,23.85
2023-01-23T22:04:22.013Z,25.92
2023-01-23T22:06:54.249Z,27.48
2023-01-23T22:09:24.658Z,27.50
2023-01-23T22:11:51.758Z,27.27
2023-01-23T22:14:18.784Z,24.73
2023-01-23T22:16:48.970Z,25.88
2023-01-23T22:19:19.295Z,24.13
2023-01-23T22:21:46.732Z,25.55
2023-01-23T22:24:14.688Z,25.10
2023-01-23T22:26:41.720Z,23.05
2023-01-23T22:29:08.943Z,24.77
2023-01-23T22:31:36.000Z,26.50
2023-01-23T22:34:03.118Z,25.58
2023-01-23T22:36:30.019Z,27.63
2023-01-23T22:38:57.105Z,26.27
2023-01-23T22:41:24.984Z,23.40
2023-01-23T22:43:56.341Z,26.70
2023-01-23T22:46:23.761Z,24.42
2023-01-23T22:48:51.493Z,25.95
2023-01-23T22:51:24.465Z,27.08
2023-01-23T22:53:53.241Z,26.20
2023-01-23T22:56:21.062Z,26.00
2023-01-23T22:58:49.392Z,23.55
2023-01-23T23:01:17.359Z,29.27
2023-01-23T23:03:44.854Z,23.42
2023-01-23T23:06:14.121Z,24.73
2023-01-23T23:08:41.272Z,25.35
2023-01-23T23:11:10.832Z,26.75
2023-01-23T23:13:39.393Z,22.77
2023-01-23T23:16:09.447Z,24.40
2023-01-23T23:18:39.229Z,23.67
2023-01-23T23:21:09.532Z,30.23
2023-01-23T23:23:36.420Z,26.65
2023-01-23T23:26:04.697Z,27.27
2023-01-23T23:28:31.978Z,22.83
2023-01-23T23:30:58.878Z,28.15
2023-01-23T23:33:25.751Z,26.48
2023-01-23T23:35:53.126Z,23.52
2023-01-23T23:38:20.241Z,23.52
2023-01-23T23:40:57.781Z,26.45
2023-01-23T23:43:25.230Z,22.55
2023-01-23T23:46:03.084Z,22.40
2023-01-23T23:48:31.322Z,22.52
2023-01-23T23:51:03.292Z,23.95
2023-01-23T23:53:30.808Z,23.30
2023-01-23T23:55:57.726Z,24.67
2023-01-23T23:58:24.720Z,23.63
